sensor_id;sensor_type;location;lat;lon;timestamp;P1;durP1;ratioP1;P2;durP2;ratioP2
8100;SDS011;4093;53.470;9.832;2023-02-01T00:00:41;20.90;;;4.67;;
8100;SDS011;4093;53.470;9.832;2023-02-01T00:03:09;19.37;;;5.17;;
8100;SDS011;4093;53.470;9.832;2023-02-01T00:05:39;28.30;;;5.40;;
8100;SDS011;4093;53.470;9.832;2023-02-01T00:08:06;15.93;;;4.80;;
8100;SDS011;4093;53.470;9.832;2023-02-01T00:10:35;21.73;;;5.17;;
8100;SDS011;4093;53.470;9.832;2023-02-01T00:13:03;23.97;;;5.60;;
8100;SDS011;4093;53.470;9.832;2023-02-01T00:15:30;24.27;;;5.57;;
8100;SDS011;4093;53.470;9.832;2023-02-01T00:18:01;21.53;;;5.30;;
8100;SDS011;4093;53.470;9.832;2023-02-01T00:20:28;19.43;;;5.23;;
8100;SDS011;4093;53.470;9.832;2023-02-01T00:22:56;21.23;;;5.70;;
8100;SDS011;4093;53.470;9.832;2023-02-01T00:25:23;23.20;;;5.53;;
8100;SDS011;4093;53.470;9.832;2023-02-01T00:27:51;28.87;;;6.40;;
8100;SDS011;4093;53.470;9.832;2023-02-01T00:30:19;34.07;;;7.17;;
8100;SDS011;4093;53.470;9.832;2023-02-01T00:32:47;29.50;;;6.63;;
8100;SDS011;4093;53.470;9.832;2023-02-01T00:35:16;26.83;;;6.20;;
8100;SDS011;4093;53.470;9.832;2023-02-01T00:37:44;29.27;;;6.03;;
8100;SDS011;4093;53.470;9.832;2023-02-01T00:40:12;29.13;;;5.83;;
8100;SDS011;4093;53.470;9.832;2023-02-01T00:42:39;25.97;;;6.50;;
8100;SDS011;4093;53.470;9.832;2023-02-01T00:45:08;25.53;;;5.70;;
8100;SDS011;4093;53.470;9.832;2023-02-01T00:47:36;27.97;;;6.10;;
8100;SDS011;4093;53.470;9.832;2023-02-01T00:50:04;24.00;;;5.80;;
8100;SDS011;4093;53.470;9.832;2023-02-01T00:52:33;29.77;;;5.63;;
8100;SDS011;4093;53.470;9.832;2023-02-01T00:55:01;26.60;;;6.43;;
8100;SDS011;4093;53.470;9.832;2023-02-01T00:57:29;29.33;;;5.87;;
8100;SDS011;4093;53.470;9.832;2023-02-01T00:59:56;26.97;;;6.10;;
8100;SDS011;4093;53.470;9.832;2023-02-01T01:02:25;32.23;;;6.73;;
8100;SDS011;4093;53.470;9.832;2023-02-01T01:04:53;25.53;;;6.67;;
8100;SDS011;4093;53.470;9.832;2023-02-01T01:07:21;22.67;;;5.90;;
8100;SDS011;4093;53.470;9.832;2023-02-01T01:09:50;28.77;;;6.03;;
8100;SDS011;4093;53.470;9.832;2023-02-01T01:12:18;27.67;;;6.00;;
8100;SDS011;4093;53.470;9.832;2023-02-01T01:14:45;31.50;;;6.53;;
8100;SDS011;4093;53.470;9.832;2023-02-01T01:17:13;25.60;;;6.43;;
8100;SDS011;4093;53.470;9.832;2023-02-01T01:19:41;30.80;;;5.93;;
8100;SDS011;4093;53.470;9.832;2023-02-01T01:22:08;23.97;;;5.67;;
8100;SDS011;4093;53.470;9.832;2023-02-01T01:24:36;22.43;;;5.20;;
8100;SDS011;4093;53.470;9.832;2023-02-01T01:27:05;30.07;;;6.90;;
8100;SDS011;4093;53.470;9.832;2023-02-01T01:29:33;27.13;;;6.20;;
8100;SDS011;4093;53.470;9.832;2023-02-01T01:32:00;36.73;;;7.43;;
8100;SDS011;4093;53.470;9.832;2023-02-01T01:34:28;25.23;;;6.03;;
8100;SDS011;4093;53.470;9.832;2023-02-01T01:36:56;25.77;;;6.17;;
8100;SDS011;4093;53.470;9.832;2023-02-01T01:39:24;24.07;;;6.33;;
8100;SDS011;4093;53.470;9.832;2023-02-01T01:41:52;28.40;;;5.67;;
8100;SDS011;4093;53.470;9.832;2023-02-01T01:47:32;30.57;;;6.47;;
8100;SDS011;4093;53.470;9.832;2023-02-01T01:50:03;25.83;;;5.70;;
8100;SDS011;4093;53.470;9.832;2023-02-01T01:52:33;30.63;;;6.83;;
8100;SDS011;4093;53.470;9.832;2023-02-01T01:55:02;36.47;;;6.93;;
8100;SDS011;4093;53.470;9.832;2023-02-01T01:57:31;25.47;;;6.23;;
8100;SDS011;4093;53.470;9.832;2023-02-01T02:00:05;26.90;;;5.87;;
8100;SDS011;4093;53.470;9.832;2023-02-01T02:02:35;30.00;;;6.37;;
8100;SDS011;4093;53.470;9.832;2023-02-01T02:05:04;27.80;;;6.17;;
8100;SDS011;4093;53.470;9.832;2023-02-01T02:07:34;28.77;;;6.80;;
8100;SDS011;4093;53.470;9.832;2023-02-01T02:10:06;24.77;;;5.97;;
8100;SDS011;4093;53.470;9.832;2023-02-01T02:12:37;38.63;;;7.00;;
8100;SDS011;4093;53.470;9.832;2023-02-01T02:15:08;25.53;;;6.07;;
8100;SDS011;4093;53.470;9.832;2023-02-01T02:17:40;30.87;;;6.03;;
8100;SDS011;4093;53.470;9.832;2023-02-01T02:20:25;32.00;;;6.50;;
8100;SDS011;4093;53.470;9.832;2023-02-01T02:23:21;32.10;;;7.10;;
8100;SDS011;4093;53.470;9.832;2023-02-01T02:26:10;25.70;;;6.33;;
8100;SDS011;4093;53.470;9.832;2023-02-01T02:29:07;29.43;;;5.73;;
8100;SDS011;4093;53.470;9.832;2023-02-01T02:32:07;23.93;;;6.60;;
8100;SDS011;4093;53.470;9.832;2023-02-01T02:35:00;27.53;;;6.90;;
8100;SDS011;4093;53.470;9.832;2023-02-01T02:37:34;26.33;;;5.83;;
8100;SDS011;4093;53.470;9.832;2023-02-01T02:40:07;32.60;;;6.27;;
8100;SDS011;4093;53.470;9.832;2023-02-01T02:42:48;38.20;;;7.40;;
8100;SDS011;4093;53.470;9.832;2023-02-01T02:45:44;30.90;;;6.47;;
8100;SDS011;4093;53.470;9.832;2023-02-01T02:48:35;34.03;;;6.23;;
8100;SDS011;4093;53.470;9.832;2023-02-01T02:51:11;30.40;;;6.27;;
8100;SDS011;4093;53.470;9.832;2023-02-01T02:54:02;21.93;;;5.77;;
8100;SDS011;4093;53.470;9.832;2023-02-01T02:56:51;26.03;;;5.90;;
8100;SDS011;4093;53.470;9.832;2023-02-01T02:59:38;25.57;;;6.67;;
8100;SDS011;4093;53.470;9.832;2023-02-01T03:02:26;26.03;;;5.30;;
8100;SDS011;4093;53.470;9.832;2023-02-01T03:05:12;27.10;;;6.00;;
8100;SDS011;4093;53.470;9.832;2023-02-01T03:07:55;21.70;;;5.70;;
8100;SDS011;4093;53.470;9.832;2023-02-01T03:10:32;25.70;;;5.97;;
8100;SDS011;4093;53.470;9.832;2023-02-01T03:13:06;23.47;;;5.90;;
8100;SDS011;4093;53.470;9.832;2023-02-01T03:15:36;30.53;;;5.73;;
8100;SDS011;4093;53.470;9.832;2023-02-01T03:18:11;20.17;;;5.03;;
8100;SDS011;4093;53.470;9.832;2023-02-01T03:20:43;32.83;;;5.73;;
8100;SDS011;4093;53.470;9.832;2023-02-01T03:23:16;26.40;;;5.87;;
8100;SDS011;4093;53.470;9.832;2023-02-01T03:25:48;22.80;;;5.57;;
8100;SDS011;4093;53.470;9.832;2023-02-01T03:28:18;19.50;;;4.77;;
8100;SDS011;4093;53.470;9.832;2023-02-01T03:30:47;20.77;;;5.67;;
8100;SDS011;4093;53.470;9.832;2023-02-01T03:33:17;18.07;;;4.17;;
8100;SDS011;4093;53.470;9.832;2023-02-01T03:35:54;16.50;;;4.00;;
8100;SDS011;4093;53.470;9.832;2023-02-01T03:38:30;12.53;;;4.00;;
8100;SDS011;4093;53.470;9.832;2023-02-01T03:41:03;16.27;;;4.23;;
8100;SDS011;4093;53.470;9.832;2023-02-01T03:43:38;16.57;;;4.30;;
8100;SDS011;4093;53.470;9.832;2023-02-01T03:46:17;14.90;;;4.07;;
8100;SDS011;4093;53.470;9.832;2023-02-01T03:48:50;11.83;;;3.10;;
8100;SDS011;4093;53.470;9.832;2023-02-01T03:51:20;16.83;;;3.60;;
8100;SDS011;4093;53.470;9.832;2023-02-01T03:53:51;13.73;;;3.57;;
8100;SDS011;4093;53.470;9.832;2023-02-01T03:56:21;10.40;;;2.90;;
8100;SDS011;4093;53.470;9.832;2023-02-01T03:58:50;17.00;;;3.27;;
8100;SDS011;4093;53.470;9.832;2023-02-01T04:01:26;13.27;;;3.10;;
8100;SDS011;4093;53.470;9.832;2023-02-01T04:03:55;15.07;;;4.00;;
8100;SDS011;4093;53.470;9.832;2023-02-01T04:06:24;11.13;;;3.10;;
8100;SDS011;4093;53.470;9.832;2023-02-01T04:08:53;11.47;;;3.30;;
8100;SDS011;4093;53.470;9.832;2023-02-01T04:11:21;15.00;;;3.43;;
8100;SDS011;4093;53.470;9.832;2023-02-01T04:13:49;17.80;;;3.70;;
8100;SDS011;4093;53.470;9.832;2023-02-01T04:16:16;15.03;;;4.00;;
8100;SDS011;4093;53.470;9.832;2023-02-01T04:18:44;12.13;;;3.30;;
8100;SDS011;4093;53.470;9.832;2023-02-01T04:21:12;15.67;;;4.80;;
8100;SDS011;4093;53.470;9.832;2023-02-01T04:23:39;23.23;;;4.13;;
8100;SDS011;4093;53.470;9.832;2023-02-01T04:26:09;15.77;;;3.37;;
8100;SDS011;4093;53.470;9.832;2023-02-01T04:28:36;9.17;;;3.10;;
8100;SDS011;4093;53.470;9.832;2023-02-01T04:31:04;16.53;;;4.10;;
8100;SDS011;4093;53.470;9.832;2023-02-01T04:33:32;18.00;;;3.80;;
8100;SDS011;4093;53.470;9.832;2023-02-01T04:36:00;17.60;;;4.13;;
8100;SDS011;4093;53.470;9.832;2023-02-01T04:38:27;8.73;;;3.37;;
8100;SDS011;4093;53.470;9.832;2023-02-01T04:40:58;12.10;;;3.23;;
8100;SDS011;4093;53.470;9.832;2023-02-01T04:43:27;11.00;;;3.00;;
8100;SDS011;4093;53.470;9.832;2023-02-01T04:45:55;11.90;;;3.63;;
8100;SDS011;4093;53.470;9.832;2023-02-01T04:48:23;9.43;;;3.30;;
8100;SDS011;4093;53.470;9.832;2023-02-01T04:50:50;11.80;;;3.10;;
8100;SDS011;4093;53.470;9.832;2023-02-01T04:53:18;7.13;;;3.00;;
8100;SDS011;4093;53.470;9.832;2023-02-01T04:55:47;10.87;;;2.80;;
8100;SDS011;4093;53.470;9.832;2023-02-01T04:58:15;8.87;;;2.90;;
8100;SDS011;4093;53.470;9.832;2023-02-01T05:00:45;7.43;;;2.57;;
8100;SDS011;4093;53.470;9.832;2023-02-01T05:03:12;8.73;;;2.47;;
8100;SDS011;4093;53.470;9.832;2023-02-01T05:05:40;8.43;;;2.33;;
8100;SDS011;4093;53.470;9.832;2023-02-01T05:08:08;3.47;;;1.87;;
8100;SDS011;4093;53.470;9.832;2023-02-01T05:10:36;5.13;;;1.70;;
8100;SDS011;4093;53.470;9.832;2023-02-01T05:13:03;4.80;;;2.10;;
8100;SDS011;4093;53.470;9.832;2023-02-01T05:15:51;4.37;;;1.97;;
8100;SDS011;4093;53.470;9.832;2023-02-01T05:18:18;5.47;;;1.73;;
8100;SDS011;4093;53.470;9.832;2023-02-01T05:20:46;2.70;;;1.50;;
8100;SDS011;4093;53.470;9.832;2023-02-01T05:23:14;2.07;;;1.57;;
8100;SDS011;4093;53.470;9.832;2023-02-01T05:25:42;1.70;;;1.53;;
8100;SDS011;4093;53.470;9.832;2023-02-01T05:28:09;1.40;;;1.30;;
8100;SDS011;4093;53.470;9.832;2023-02-01T05:30:37;2.23;;;1.30;;
8100;SDS011;4093;53.470;9.832;2023-02-01T05:33:09;2.57;;;1.60;;
8100;SDS011;4093;53.470;9.832;2023-02-01T05:35:36;4.43;;;1.47;;
8100;SDS011;4093;53.470;9.832;2023-02-01T05:38:04;1.43;;;1.23;;
8100;SDS011;4093;53.470;9.832;2023-02-01T05:40:32;1.63;;;1.40;;
8100;SDS011;4093;53.470;9.832;2023-02-01T05:43:00;2.47;;;1.30;;
8100;SDS011;4093;53.470;9.832;2023-02-01T05:45:27;3.63;;;1.20;;
8100;SDS011;4093;53.470;9.832;2023-02-01T05:47:55;2.53;;;1.47;;
8100;SDS011;4093;53.470;9.832;2023-02-01T05:50:24;2.77;;;1.40;;
8100;SDS011;4093;53.470;9.832;2023-02-01T05:52:52;2.57;;;1.40;;
8100;SDS011;4093;53.470;9.832;2023-02-01T05:55:19;3.80;;;1.67;;
8100;SDS011;4093;53.470;9.832;2023-02-01T05:57:47;1.57;;;1.47;;
8100;SDS011;4093;53.470;9.832;2023-02-01T06:00:15;1.57;;;1.30;;
8100;SDS011;4093;53.470;9.832;2023-02-01T06:02:46;1.43;;;1.33;;
8100;SDS011;4093;53.470;9.832;2023-02-01T06:05:13;4.87;;;1.70;;
8100;SDS011;4093;53.470;9.832;2023-02-01T06:07:43;5.43;;;2.30;;
8100;SDS011;4093;53.470;9.832;2023-02-01T06:10:10;5.47;;;1.93;;
8100;SDS011;4093;53.470;9.832;2023-02-01T06:12:38;3.93;;;2.20;;
8100;SDS011;4093;53.470;9.832;2023-02-01T06:15:07;4.10;;;2.13;;
8100;SDS011;4093;53.470;9.832;2023-02-01T06:17:35;7.97;;;2.50;;
8100;SDS011;4093;53.470;9.832;2023-02-01T06:20:03;8.23;;;2.60;;
8100;SDS011;4093;53.470;9.832;2023-02-01T06:22:32;6.60;;;2.13;;
8100;SDS011;4093;53.470;9.832;2023-02-01T06:25:03;5.43;;;2.50;;
8100;SDS011;4093;53.470;9.832;2023-02-01T06:27:32;5.23;;;2.33;;
8100;SDS011;4093;53.470;9.832;2023-02-01T06:30:00;9.20;;;2.37;;
8100;SDS011;4093;53.470;9.832;2023-02-01T06:32:29;11.43;;;2.70;;
8100;SDS011;4093;53.470;9.832;2023-02-01T06:34:57;8.73;;;2.83;;
8100;SDS011;4093;53.470;9.832;2023-02-01T06:37:26;10.07;;;3.10;;
8100;SDS011;4093;53.470;9.832;2023-02-01T06:39:55;8.70;;;2.80;;
8100;SDS011;4093;53.470;9.832;2023-02-01T06:42:24;12.97;;;3.73;;
8100;SDS011;4093;53.470;9.832;2023-02-01T06:44:52;12.47;;;3.67;;
8100;SDS011;4093;53.470;9.832;2023-02-01T06:47:20;11.43;;;2.80;;
8100;SDS011;4093;53.470;9.832;2023-02-01T06:49:48;12.93;;;3.50;;
8100;SDS011;4093;53.470;9.832;2023-02-01T06:52:15;10.93;;;3.57;;
8100;SDS011;4093;53.470;9.832;2023-02-01T06:54:43;10.33;;;3.40;;
8100;SDS011;4093;53.470;9.832;2023-02-01T06:57:11;12.53;;;3.13;;
8100;SDS011;4093;53.470;9.832;2023-02-01T06:59:40;14.53;;;3.33;;
8100;SDS011;4093;53.470;9.832;2023-02-01T07:02:09;11.70;;;3.07;;
8100;SDS011;4093;53.470;9.832;2023-02-01T07:04:38;12.07;;;3.43;;
8100;SDS011;4093;53.470;9.832;2023-02-01T07:07:06;9.27;;;3.53;;
8100;SDS011;4093;53.470;9.832;2023-02-01T07:09:33;11.90;;;3.73;;
8100;SDS011;4093;53.470;9.832;2023-02-01T07:12:01;13.87;;;3.50;;
8100;SDS011;4093;53.470;9.832;2023-02-01T07:14:29;10.30;;;3.50;;
8100;SDS011;4093;53.470;9.832;2023-02-01T07:16:58;15.03;;;3.80;;
8100;SDS011;4093;53.470;9.832;2023-02-01T07:19:26;15.13;;;4.67;;
8100;SDS011;4093;53.470;9.832;2023-02-01T07:21:53;15.30;;;3.93;;
8100;SDS011;4093;53.470;9.832;2023-02-01T07:24:21;20.90;;;4.40;;
8100;SDS011;4093;53.470;9.832;2023-02-01T07:26:49;26.27;;;5.07;;
8100;SDS011;4093;53.470;9.832;2023-02-01T07:29:18;21.70;;;5.17;;
8100;SDS011;4093;53.470;9.832;2023-02-01T07:31:46;21.07;;;5.30;;
8100;SDS011;4093;53.470;9.832;2023-02-01T07:34:16;19.80;;;4.80;;
8100;SDS011;4093;53.470;9.832;2023-02-01T07:36:43;27.33;;;5.30;;
8100;SDS011;4093;53.470;9.832;2023-02-01T07:39:11;19.50;;;5.60;;
8100;SDS011;4093;53.470;9.832;2023-02-01T07:41:39;20.90;;;4.93;;
8100;SDS011;4093;53.470;9.832;2023-02-01T07:44:07;27.37;;;5.20;;
8100;SDS011;4093;53.470;9.832;2023-02-01T07:46:34;29.13;;;5.40;;
8100;SDS011;4093;53.470;9.832;2023-02-01T07:49:02;18.07;;;5.20;;
8100;SDS011;4093;53.470;9.832;2023-02-01T07:51:31;25.37;;;5.90;;
8100;SDS011;4093;53.470;9.832;2023-02-01T07:53:59;19.83;;;5.13;;
8100;SDS011;4093;53.470;9.832;2023-02-01T07:56:27;19.57;;;5.83;;
8100;SDS011;4093;53.470;9.832;2023-02-01T07:58:55;18.40;;;4.43;;
8100;SDS011;4093;53.470;9.832;2023-02-01T08:01:24;24.00;;;5.17;;
8100;SDS011;4093;53.470;9.832;2023-02-01T08:03:53;28.67;;;5.27;;
8100;SDS011;4093;53.470;9.832;2023-02-01T08:06:22;22.73;;;4.83;;
8100;SDS011;4093;53.470;9.832;2023-02-01T08:08:52;28.60;;;5.43;;
8100;SDS011;4093;53.470;9.832;2023-02-01T08:11:21;20.50;;;4.70;;
8100;SDS011;4093;53.470;9.832;2023-02-01T08:13:50;22.83;;;5.83;;
8100;SDS011;4093;53.470;9.832;2023-02-01T08:16:19;26.50;;;5.40;;
8100;SDS011;4093;53.470;9.832;2023-02-01T08:18:47;26.47;;;5.03;;
8100;SDS011;4093;53.470;9.832;2023-02-01T08:21:16;19.27;;;5.37;;
8100;SDS011;4093;53.470;9.832;2023-02-01T08:23:46;26.80;;;4.90;;
8100;SDS011;4093;53.470;9.832;2023-02-01T08:26:16;26.77;;;5.80;;
8100;SDS011;4093;53.470;9.832;2023-02-01T08:28:46;25.43;;;5.73;;
8100;SDS011;4093;53.470;9.832;2023-02-01T08:31:16;25.37;;;5.70;;
8100;SDS011;4093;53.470;9.832;2023-02-01T08:33:48;21.30;;;4.93;;
8100;SDS011;4093;53.470;9.832;2023-02-01T08:36:16;24.70;;;5.53;;
8100;SDS011;4093;53.470;9.832;2023-02-01T08:38:45;20.43;;;5.13;;
8100;SDS011;4093;53.470;9.832;2023-02-01T08:41:15;16.77;;;5.17;;
8100;SDS011;4093;53.470;9.832;2023-02-01T08:43:45;21.70;;;4.73;;
8100;SDS011;4093;53.470;9.832;2023-02-01T08:46:14;19.60;;;4.80;;
8100;SDS011;4093;53.470;9.832;2023-02-01T08:48:42;22.43;;;5.03;;
8100;SDS011;4093;53.470;9.832;2023-02-01T08:51:12;16.57;;;4.47;;
8100;SDS011;4093;53.470;9.832;2023-02-01T08:53:42;23.40;;;6.33;;
8100;SDS011;4093;53.470;9.832;2023-02-01T08:56:10;23.57;;;4.77;;
8100;SDS011;4093;53.470;9.832;2023-02-01T08:58:40;17.77;;;4.67;;
8100;SDS011;4093;53.470;9.832;2023-02-01T09:01:09;23.47;;;4.80;;
8100;SDS011;4093;53.470;9.832;2023-02-01T09:03:39;24.70;;;5.63;;
8100;SDS011;4093;53.470;9.832;2023-02-01T09:06:08;22.00;;;5.63;;
8100;SDS011;4093;53.470;9.832;2023-02-01T09:08:37;19.77;;;4.60;;
8100;SDS011;4093;53.470;9.832;2023-02-01T09:11:06;27.80;;;5.90;;
8100;SDS011;4093;53.470;9.832;2023-02-01T09:13:36;22.77;;;5.53;;
8100;SDS011;4093;53.470;9.832;2023-02-01T09:16:06;17.97;;;4.40;;
8100;SDS011;4093;53.470;9.832;2023-02-01T09:18:33;25.07;;;5.93;;
8100;SDS011;4093;53.470;9.832;2023-02-01T09:21:03;24.73;;;5.60;;
8100;SDS011;4093;53.470;9.832;2023-02-01T09:23:31;19.10;;;5.07;;
8100;SDS011;4093;53.470;9.832;2023-02-01T09:25:59;28.23;;;5.47;;
8100;SDS011;4093;53.470;9.832;2023-02-01T09:28:27;26.17;;;6.17;;
8100;SDS011;4093;53.470;9.832;2023-02-01T09:30:55;12.83;;;4.40;;
8100;SDS011;4093;53.470;9.832;2023-02-01T09:33:26;21.77;;;5.67;;
8100;SDS011;4093;53.470;9.832;2023-02-01T09:35:55;24.17;;;5.23;;
8100;SDS011;4093;53.470;9.832;2023-02-01T09:38:23;19.43;;;5.10;;
8100;SDS011;4093;53.470;9.832;2023-02-01T09:40:53;25.97;;;5.83;;
8100;SDS011;4093;53.470;9.832;2023-02-01T09:43:25;20.23;;;4.80;;
8100;SDS011;4093;53.470;9.832;2023-02-01T09:46:10;21.03;;;5.13;;
8100;SDS011;4093;53.470;9.832;2023-02-01T09:48:48;23.67;;;5.13;;
8100;SDS011;4093;53.470;9.832;2023-02-01T09:51:20;23.63;;;6.30;;
8100;SDS011;4093;53.470;9.832;2023-02-01T09:53:55;28.97;;;5.67;;
8100;SDS011;4093;53.470;9.832;2023-02-01T09:56:29;15.90;;;4.87;;
8100;SDS011;4093;53.470;9.832;2023-02-01T09:59:04;18.27;;;4.77;;
8100;SDS011;4093;53.470;9.832;2023-02-01T10:01:43;14.13;;;3.80;;
8100;SDS011;4093;53.470;9.832;2023-02-01T10:04:13;23.03;;;5.10;;
8100;SDS011;4093;53.470;9.832;2023-02-01T10:06:46;16.00;;;4.70;;
8100;SDS011;4093;53.470;9.832;2023-02-01T10:09:25;19.80;;;5.40;;
8100;SDS011;4093;53.470;9.832;2023-02-01T10:15:19;37.77;;;5.30;;
8100;SDS011;4093;53.470;9.832;2023-02-01T10:17:58;23.13;;;5.93;;
8100;SDS011;4093;53.470;9.832;2023-02-01T10:20:44;20.83;;;4.70;;
8100;SDS011;4093;53.470;9.832;2023-02-01T10:23:25;19.07;;;4.70;;
8100;SDS011;4093;53.470;9.832;2023-02-01T10:26:05;16.13;;;4.37;;
8100;SDS011;4093;53.470;9.832;2023-02-01T10:28:40;21.17;;;4.80;;
8100;SDS011;4093;53.470;9.832;2023-02-01T10:31:10;23.20;;;4.63;;
8100;SDS011;4093;53.470;9.832;2023-02-01T10:33:39;21.97;;;6.40;;
8100;SDS011;4093;53.470;9.832;2023-02-01T10:36:13;19.07;;;5.10;;
8100;SDS011;4093;53.470;9.832;2023-02-01T10:38:44;17.87;;;5.07;;
8100;SDS011;4093;53.470;9.832;2023-02-01T10:41:15;23.90;;;5.53;;
8100;SDS011;4093;53.470;9.832;2023-02-01T10:43:45;18.80;;;5.17;;
8100;SDS011;4093;53.470;9.832;2023-02-01T10:46:18;21.53;;;4.70;;
8100;SDS011;4093;53.470;9.832;2023-02-01T10:48:46;22.00;;;4.30;;
8100;SDS011;4093;53.470;9.832;2023-02-01T10:51:19;26.00;;;4.43;;
8100;SDS011;4093;53.470;9.832;2023-02-01T10:53:51;24.00;;;5.47;;
8100;SDS011;4093;53.470;9.832;2023-02-01T10:56:21;23.03;;;5.27;;
8100;SDS011;4093;53.470;9.832;2023-02-01T10:58:50;25.00;;;4.97;;
8100;SDS011;4093;53.470;9.832;2023-02-01T11:01:19;20.70;;;7.13;;
8100;SDS011;4093;53.470;9.832;2023-02-01T11:03:52;26.93;;;6.33;;
8100;SDS011;4093;53.470;9.832;2023-02-01T11:06:26;24.30;;;6.33;;
8100;SDS011;4093;53.470;9.832;2023-02-01T11:08:57;16.20;;;5.27;;
8100;SDS011;4093;53.470;9.832;2023-02-01T11:11:27;18.97;;;4.77;;
8100;SDS011;4093;53.470;9.832;2023-02-01T11:13:56;18.20;;;4.73;;
8100;SDS011;4093;53.470;9.832;2023-02-01T11:16:29;18.00;;;4.37;;
8100;SDS011;4093;53.470;9.832;2023-02-01T11:19:00;17.90;;;4.87;;
8100;SDS011;4093;53.470;9.832;2023-02-01T11:21:30;18.53;;;4.70;;
8100;SDS011;4093;53.470;9.832;2023-02-01T11:24:00;31.60;;;6.53;;
8100;SDS011;4093;53.470;9.832;2023-02-01T11:26:35;14.83;;;4.47;;
8100;SDS011;4093;53.470;9.832;2023-02-01T11:29:09;27.17;;;4.70;;
8100;SDS011;4093;53.470;9.832;2023-02-01T11:31:40;22.07;;;5.33;;
8100;SDS011;4093;53.470;9.832;2023-02-01T11:34:11;22.47;;;5.10;;
8100;SDS011;4093;53.470;9.832;2023-02-01T11:36:43;16.93;;;3.93;;
8100;SDS011;4093;53.470;9.832;2023-02-01T11:39:21;16.60;;;4.77;;
8100;SDS011;4093;53.470;9.832;2023-02-01T11:41:57;22.67;;;5.43;;
8100;SDS011;4093;53.470;9.832;2023-02-01T11:44:32;24.70;;;6.40;;
8100;SDS011;4093;53.470;9.832;2023-02-01T11:49:52;11.73;;;3.23;;
8100;SDS011;4093;53.470;9.832;2023-02-01T11:52:27;13.10;;;2.83;;
8100;SDS011;4093;53.470;9.832;2023-02-01T11:58:17;8.77;;;3.27;;
8100;SDS011;4093;53.470;9.832;2023-02-01T12:01:02;13.37;;;3.57;;
8100;SDS011;4093;53.470;9.832;2023-02-01T12:03:52;12.07;;;3.20;;
8100;SDS011;4093;53.470;9.832;2023-02-01T12:06:45;12.83;;;3.80;;
8100;SDS011;4093;53.470;9.832;2023-02-01T12:09:23;8.40;;;3.10;;
8100;SDS011;4093;53.470;9.832;2023-02-01T12:12:03;15.77;;;4.20;;
8100;SDS011;4093;53.470;9.832;2023-02-01T12:14:43;9.63;;;2.80;;
8100;SDS011;4093;53.470;9.832;2023-02-01T12:17:32;13.47;;;3.97;;
8100;SDS011;4093;53.470;9.832;2023-02-01T12:20:25;12.13;;;3.70;;
8100;SDS011;4093;53.470;9.832;2023-02-01T12:23:13;13.37;;;3.30;;
8100;SDS011;4093;53.470;9.832;2023-02-01T12:26:08;8.23;;;3.13;;
8100;SDS011;4093;53.470;9.832;2023-02-01T12:29:01;6.13;;;2.33;;
8100;SDS011;4093;53.470;9.832;2023-02-01T12:34:52;3.33;;;2.10;;
8100;SDS011;4093;53.470;9.832;2023-02-01T12:37:35;5.03;;;1.90;;
8100;SDS011;4093;53.470;9.832;2023-02-01T12:40:21;3.33;;;1.70;;
8100;SDS011;4093;53.470;9.832;2023-02-01T12:42:59;1.83;;;1.40;;
8100;SDS011;4093;53.470;9.832;2023-02-01T12:45:30;2.23;;;1.50;;
8100;SDS011;4093;53.470;9.832;2023-02-01T12:48:07;1.50;;;1.37;;
8100;SDS011;4093;53.470;9.832;2023-02-01T12:50:49;1.40;;;1.30;;
8100;SDS011;4093;53.470;9.832;2023-02-01T12:53:22;2.30;;;1.40;;
8100;SDS011;4093;53.470;9.832;2023-02-01T12:55:55;1.30;;;1.20;;
8100;SDS011;4093;53.470;9.832;2023-02-01T12:58:31;2.13;;;1.20;;
8100;SDS011;4093;53.470;9.832;2023-02-01T13:01:06;1.63;;;1.27;;
8100;SDS011;4093;53.470;9.832;2023-02-01T13:03:41;2.73;;;1.67;;
8100;SDS011;4093;53.470;9.832;2023-02-01T13:06:15;2.50;;;1.30;;
8100;SDS011;4093;53.470;9.832;2023-02-01T13:08:47;2.23;;;1.60;;
8100;SDS011;4093;53.470;9.832;2023-02-01T13:11:20;2.70;;;1.10;;
8100;SDS011;4093;53.470;9.832;2023-02-01T13:13:56;2.10;;;1.60;;
8100;SDS011;4093;53.470;9.832;2023-02-01T13:16:31;1.30;;;1.20;;
8100;SDS011;4093;53.470;9.832;2023-02-01T13:19:05;1.43;;;1.33;;
8100;SDS011;4093;53.470;9.832;2023-02-01T13:21:42;1.90;;;1.40;;
8100;SDS011;4093;53.470;9.832;2023-02-01T13:24:16;1.50;;;1.30;;
8100;SDS011;4093;53.470;9.832;2023-02-01T13:26:53;1.23;;;1.13;;
8100;SDS011;4093;53.470;9.832;2023-02-01T13:29:23;1.10;;;1.10;;
8100;SDS011;4093;53.470;9.832;2023-02-01T13:31:58;1.30;;;1.20;;
8100;SDS011;4093;53.470;9.832;2023-02-01T13:37:51;1.30;;;1.20;;
8100;SDS011;4093;53.470;9.832;2023-02-01T13:40:36;5.27;;;1.30;;
8100;SDS011;4093;53.470;9.832;2023-02-01T13:43:10;2.57;;;1.57;;
8100;SDS011;4093;53.470;9.832;2023-02-01T13:45:45;1.50;;;1.20;;
8100;SDS011;4093;53.470;9.832;2023-02-01T13:48:18;1.27;;;1.10;;
8100;SDS011;4093;53.470;9.832;2023-02-01T13:50:50;2.23;;;1.43;;
8100;SDS011;4093;53.470;9.832;2023-02-01T13:53:22;2.80;;;1.30;;
8100;SDS011;4093;53.470;9.832;2023-02-01T13:55:55;2.70;;;1.67;;
8100;SDS011;4093;53.470;9.832;2023-02-01T13:58:30;3.97;;;1.63;;
8100;SDS011;4093;53.470;9.832;2023-02-01T14:04:03;2.50;;;1.60;;
8100;SDS011;4093;53.470;9.832;2023-02-01T14:06:35;4.47;;;1.87;;
8100;SDS011;4093;53.470;9.832;2023-02-01T14:09:15;5.23;;;2.10;;
8100;SDS011;4093;53.470;9.832;2023-02-01T14:11:52;2.00;;;1.60;;
8100;SDS011;4093;53.470;9.832;2023-02-01T14:17:42;7.03;;;2.20;;
8100;SDS011;4093;53.470;9.832;2023-02-01T14:23:22;6.67;;;2.53;;
8100;SDS011;4093;53.470;9.832;2023-02-01T14:26:09;9.43;;;2.10;;
8100;SDS011;4093;53.470;9.832;2023-02-01T14:28:42;6.47;;;2.37;;
8100;SDS011;4093;53.470;9.832;2023-02-01T14:31:14;7.17;;;2.80;;
8100;SDS011;4093;53.470;9.832;2023-02-01T14:34:05;7.77;;;2.50;;
8100;SDS011;4093;53.470;9.832;2023-02-01T14:36:43;8.57;;;2.43;;
8100;SDS011;4093;53.470;9.832;2023-02-01T14:42:04;2.50;;;1.50;;
8100;SDS011;4093;53.470;9.832;2023-02-01T14:44:42;2.43;;;1.90;;
8100;SDS011;4093;53.470;9.832;2023-02-01T14:47:26;5.77;;;2.13;;
8100;SDS011;4093;53.470;9.832;2023-02-01T14:50:10;8.13;;;2.30;;
8100;SDS011;4093;53.470;9.832;2023-02-01T14:53:03;6.77;;;2.60;;
8100;SDS011;4093;53.470;9.832;2023-02-01T14:55:40;6.73;;;2.30;;
8100;SDS011;4093;53.470;9.832;2023-02-01T14:58:14;5.83;;;2.17;;
8100;SDS011;4093;53.470;9.832;2023-02-01T15:00:47;8.10;;;2.40;;
8100;SDS011;4093;53.470;9.832;2023-02-01T15:03:23;6.07;;;2.40;;
8100;SDS011;4093;53.470;9.832;2023-02-01T15:06:12;4.17;;;2.07;;
8100;SDS011;4093;53.470;9.832;2023-02-01T15:08:47;6.47;;;2.10;;
8100;SDS011;4093;53.470;9.832;2023-02-01T15:11:15;10.90;;;2.80;;
8100;SDS011;4093;53.470;9.832;2023-02-01T15:13:48;10.37;;;2.77;;
8100;SDS011;4093;53.470;9.832;2023-02-01T15:16:19;7.57;;;2.23;;
8100;SDS011;4093;53.470;9.832;2023-02-01T15:18:49;6.07;;;2.43;;
8100;SDS011;4093;53.470;9.832;2023-02-01T15:21:19;11.40;;;2.90;;
8100;SDS011;4093;53.470;9.832;2023-02-01T15:24:09;9.87;;;2.50;;
8100;SDS011;4093;53.470;9.832;2023-02-01T15:26:38;11.17;;;3.23;;
8100;SDS011;4093;53.470;9.832;2023-02-01T15:29:08;12.93;;;2.43;;
8100;SDS011;4093;53.470;9.832;2023-02-01T15:31:39;10.43;;;2.80;;
8100;SDS011;4093;53.470;9.832;2023-02-01T15:34:09;8.17;;;2.70;;
8100;SDS011;4093;53.470;9.832;2023-02-01T15:36:38;11.80;;;3.97;;
8100;SDS011;4093;53.470;9.832;2023-02-01T15:39:20;14.87;;;3.37;;
8100;SDS011;4093;53.470;9.832;2023-02-01T15:41:53;16.73;;;2.87;;
8100;SDS011;4093;53.470;9.832;2023-02-01T15:44:33;14.83;;;3.30;;
8100;SDS011;4093;53.470;9.832;2023-02-01T15:47:08;14.63;;;3.77;;
8100;SDS011;4093;53.470;9.832;2023-02-01T15:49:43;15.80;;;3.87;;
8100;SDS011;4093;53.470;9.832;2023-02-01T15:52:18;13.63;;;3.77;;
8100;SDS011;4093;53.470;9.832;2023-02-01T15:54:50;11.80;;;3.53;;
8100;SDS011;4093;53.470;9.832;2023-02-01T15:57:22;17.13;;;3.73;;
8100;SDS011;4093;53.470;9.832;2023-02-01T15:59:57;20.73;;;5.13;;
8100;SDS011;4093;53.470;9.832;2023-02-01T16:02:28;16.40;;;3.83;;
8100;SDS011;4093;53.470;9.832;2023-02-01T16:05:01;18.43;;;3.97;;
8100;SDS011;4093;53.470;9.832;2023-02-01T16:07:32;23.77;;;4.57;;